createdAt,value
2022-10-29T00:01:09.187Z,13.60
2022-10-29T00:04:27.195Z,13.55
2022-10-29T00:06:54.276Z,12.05
2022-10-29T00:09:21.298Z,12.18
2022-10-29T00:16:20.009Z,12.40
2022-10-29T00:18:47.499Z,12.40
2022-10-29T00:22:01.095Z,13.45
2022-10-29T00:24:28.152Z,11.95
2022-10-29T00:37:09.286Z,11.85
2022-10-29T00:39:36.412Z,12.18
2022-10-29T00:45:32.542Z,12.23
2022-10-29T00:47:59.694Z,11.18
2022-10-29T00:50:26.796Z,11.65
2022-10-29T00:53:33.386Z,10.85
2022-10-29T00:56:01.137Z,12.52
2022-10-29T01:01:37.004Z,11.52
2022-10-29T01:04:41.963Z,11.40
2022-10-29T01:07:09.139Z,11.77
2022-10-29T01:09:36.415Z,11.38
2022-10-29T01:16:18.978Z,12.13
2022-10-29T01:18:54.603Z,10.55
2022-10-29T01:21:33.589Z,11.40
2022-10-29T01:24:34.426Z,10.85
2022-10-29T01:27:43.963Z,11.50
2022-10-29T01:30:18.589Z,10.48
2022-10-29T01:32:51.848Z,9.90
2022-10-29T01:35:46.788Z,10.35
2022-10-29T01:53:28.337Z,10.60
2022-10-29T01:55:55.441Z,10.07
2022-10-29T01:58:24.103Z,10.48
2022-10-29T02:01:14.597Z,9.35
2022-10-29T02:03:56.086Z,10.48
2022-10-29T02:06:57.197Z,10.30
2022-10-29T02:09:40.100Z,9.70
2022-10-29T02:12:29.251Z,10.90
2022-10-29T02:15:06.463Z,10.85
2022-10-29T02:21:32.027Z,10.13
2022-10-29T02:23:59.197Z,10.43
2022-10-29T02:26:32.858Z,9.95
2022-10-29T02:29:00.545Z,10.38
2022-10-29T02:31:27.716Z,10.95
2022-10-29T02:38:21.583Z,9.45
2022-10-29T02:40:48.677Z,9.85
2022-10-29T02:45:46.808Z,10.00
2022-10-29T02:48:13.908Z,10.85
2022-10-29T02:50:40.945Z,9.63
2022-10-29T02:53:08.046Z,9.40
2022-10-29T02:56:37.308Z,9.93
2022-10-29T02:59:06.501Z,10.32
2022-10-29T03:04:44.301Z,9.25
2022-10-29T03:07:50.679Z,9.55
2022-10-29T03:10:17.874Z,9.40
2022-10-29T03:12:44.895Z,8.55
2022-10-29T03:15:15.857Z,8.50
2022-10-29T03:17:42.988Z,7.38
2022-10-29T03:20:10.373Z,8.23
2022-10-29T03:22:40.775Z,7.32
2022-10-29T03:25:08.237Z,7.80
2022-10-29T03:27:49.393Z,7.82
2022-10-29T03:30:17.584Z,7.68
2022-10-29T03:32:47.435Z,6.80
2022-10-29T03:36:08.444Z,7.38
2022-10-29T03:38:35.565Z,7.03
2022-10-29T03:44:24.264Z,6.00
2022-10-29T03:46:51.427Z,7.43
2022-10-29T03:53:20.764Z,6.70
2022-10-29T03:55:51.061Z,6.43
2022-10-29T03:58:18.207Z,6.45
2022-10-29T04:00:45.338Z,5.72
2022-10-29T04:03:12.398Z,6.18
2022-10-29T04:05:39.515Z,6.00
2022-10-29T04:08:06.650Z,6.10
2022-10-29T04:10:33.709Z,6.22
2022-10-29T04:13:10.836Z,6.32
2022-10-29T04:15:37.892Z,5.85
2022-10-29T04:18:05.085Z,6.15
2022-10-29T04:31:54.258Z,5.60
2022-10-29T04:34:21.343Z,5.20
2022-10-29T04:36:48.397Z,6.65
2022-10-29T04:39:18.319Z,5.85
2022-10-29T04:41:49.758Z,7.30
2022-10-29T04:44:21.952Z,6.35
2022-10-29T04:46:49.134Z,6.00
2022-10-29T04:49:16.363Z,6.65
2022-10-29T04:51:45.754Z,6.85
2022-10-29T04:54:12.839Z,6.50
2022-10-29T04:56:39.894Z,6.25
2022-10-29T04:59:32.375Z,7.38
2022-10-29T05:01:59.402Z,6.03
2022-10-29T05:04:28.246Z,7.30
2022-10-29T05:07:05.781Z,5.72
2022-10-29T05:09:32.834Z,6.60
2022-10-29T05:11:59.924Z,6.63
2022-10-29T05:18:26.213Z,7.18
2022-10-29T05:20:54.960Z,6.68
2022-10-29T05:23:22.399Z,7.05
2022-10-29T05:25:51.381Z,6.38
2022-10-29T05:28:21.584Z,6.95
2022-10-29T05:30:51.102Z,6.60
2022-10-29T05:33:39.620Z,7.65
2022-10-29T05:36:06.794Z,6.75
2022-10-29T05:38:33.882Z,6.63
2022-10-29T05:42:00.184Z,7.25
2022-10-29T05:44:27.292Z,7.53
2022-10-29T05:46:57.594Z,5.72
2022-10-29T05:50:29.949Z,6.88
2022-10-29T05:53:03.083Z,7.38
2022-10-29T05:56:21.074Z,6.68
2022-10-29T05:58:52.094Z,6.95
2022-10-29T06:01:25.225Z,6.53
2022-10-29T06:06:20.430Z,6.90
2022-10-29T06:09:12.488Z,5.88
2022-10-29T06:11:39.548Z,7.03
2022-10-29T06:14:06.671Z,6.00
2022-10-29T06:16:33.669Z,7.93
2022-10-29T06:19:00.691Z,7.75
2022-10-29T06:21:27.740Z,6.97
2022-10-29T06:23:55.891Z,7.00
2022-10-29T06:26:23.026Z,7.00
2022-10-29T06:28:50.017Z,7.35
2022-10-29T06:31:17.052Z,6.97
2022-10-29T06:33:44.151Z,7.68
2022-10-29T06:36:11.169Z,7.43
2022-10-29T06:38:38.206Z,6.45
2022-10-29T06:41:05.515Z,6.60
2022-10-29T06:43:32.511Z,6.55
2022-10-29T06:45:59.604Z,7.68
2022-10-29T06:48:26.596Z,7.72
2022-10-29T06:50:53.733Z,7.07
2022-10-29T06:53:23.816Z,7.72
2022-10-29T06:55:50.859Z,7.72
2022-10-29T06:58:20.381Z,8.63
2022-10-29T07:00:48.693Z,6.68
2022-10-29T07:03:17.850Z,8.25
2022-10-29T07:05:45.290Z,8.05
2022-10-29T07:08:12.651Z,7.38
2022-10-29T07:10:41.025Z,8.18
2022-10-29T07:13:10.030Z,8.02
2022-10-29T07:15:37.036Z,7.30
2022-10-29T07:18:06.704Z,7.85
2022-10-29T07:20:37.039Z,8.32
2022-10-29T07:23:04.294Z,8.35
2022-10-29T07:25:32.337Z,8.13
2022-10-29T07:28:08.431Z,7.85
2022-10-29T07:30:35.518Z,7.00
2022-10-29T07:33:03.900Z,8.00
2022-10-29T07:35:31.008Z,6.85
2022-10-29T07:38:09.162Z,7.80
2022-10-29T07:40:48.308Z,8.07
2022-10-29T07:43:19.017Z,9.48
2022-10-29T07:45:50.185Z,8.98
2022-10-29T07:48:21.401Z,8.57
2022-10-29T07:50:49.255Z,7.95
2022-10-29T07:55:59.638Z,7.18
2022-10-29T07:58:26.916Z,7.57
2022-10-29T08:00:54.539Z,7.65
2022-10-29T08:03:21.845Z,7.55
2022-10-29T08:05:56.413Z,6.30
2022-10-29T08:08:25.744Z,6.97
2022-10-29T08:10:52.763Z,7.35
2022-10-29T08:13:20.457Z,6.30
2022-10-29T08:15:49.670Z,7.10
2022-10-29T08:18:18.099Z,7.30
2022-10-29T08:20:45.869Z,7.10
2022-10-29T08:23:15.906Z,6.40
2022-10-29T08:25:43.725Z,6.85
2022-10-29T08:28:13.720Z,6.53
2022-10-29T08:30:50.332Z,6.07
2022-10-29T08:33:18.447Z,6.40
2022-10-29T08:35:45.444Z,6.13
2022-10-29T08:38:13.643Z,6.43
2022-10-29T08:41:05.229Z,6.47
2022-10-29T08:43:59.052Z,7.63
2022-10-29T08:46:47.118Z,6.50
2022-10-29T08:49:22.139Z,7.22
2022-10-29T08:52:01.190Z,6.28
2022-10-29T08:54:33.692Z,6.65
2022-10-29T08:57:08.067Z,5.93
2022-10-29T09:00:06.127Z,8.07
2022-10-29T09:02:33.447Z,6.95
2022-10-29T09:05:45.494Z,6.28
2022-10-29T09:08:30.723Z,7.65
2022-10-29T09:11:05.103Z,6.95
2022-10-29T09:13:41.083Z,7.57
2022-10-29T09:21:11.798Z,6.40
2022-10-29T09:23:47.905Z,6.70
2022-10-29T09:27:12.651Z,5.82
2022-10-29T09:29:46.051Z,5.83
2022-10-29T09:33:14.039Z,6.07
2022-10-29T09:35:52.663Z,6.05
2022-10-29T09:38:40.475Z,5.00
2022-10-29T09:41:10.548Z,5.63
2022-10-29T09:44:23.975Z,6.03
2022-10-29T09:47:29.089Z,6.30
2022-10-29T09:52:50.023Z,5.18
2022-10-29T09:55:27.636Z,5.15
2022-10-29T09:57:57.378Z,5.43
2022-10-29T10:00:27.866Z,6.53
2022-10-29T10:03:03.340Z,6.03
2022-10-29T10:05:35.566Z,4.90
2022-10-29T10:08:07.457Z,5.30
2022-10-29T10:10:38.192Z,6.03
2022-10-29T10:13:06.622Z,5.32
2022-10-29T10:15:37.747Z,5.30
2022-10-29T10:18:47.720Z,6.03
2022-10-29T10:21:28.437Z,6.03
2022-10-29T10:23:57.770Z,5.78
2022-10-29T10:26:45.354Z,5.72
2022-10-29T10:29:21.799Z,5.47
2022-10-29T10:32:10.206Z,5.47
2022-10-29T10:34:39.100Z,4.60
2022-10-29T10:37:16.147Z,5.70
2022-10-29T10:40:19.988Z,5.07
2022-10-29T10:42:47.623Z,5.07
2022-10-29T10:45:18.197Z,5.20
2022-10-29T10:47:51.315Z,5.68
2022-10-29T10:50:26.493Z,4.93
2022-10-29T10:52:55.575Z,5.07
2022-10-29T10:55:24.271Z,4.97
2022-10-29T10:58:16.576Z,4.90
2022-10-29T11:00:58.075Z,4.50
2022-10-29T11:04:05.670Z,4.68
2022-10-29T11:06:39.029Z,5.32
2022-10-29T11:09:29.733Z,5.18
2022-10-29T11:12:13.772Z,5.38
2022-10-29T11:14:53.724Z,4.70
2022-10-29T11:17:37.137Z,5.65
2022-10-29T11:20:15.554Z,5.43
2022-10-29T11:22:58.309Z,5.25
2022-10-29T11:25:43.496Z,5.90
2022-10-29T11:28:19.842Z,5.85
2022-10-29T11:30:58.304Z,4.82
2022-10-29T11:33:43.779Z,5.43
2022-10-29T11:36:18.839Z,6.10
2022-10-29T11:39:07.666Z,5.55
2022-10-29T11:41:48.449Z,5.20
2022-10-29T11:44:18.109Z,4.93
2022-10-29T11:47:45.119Z,5.40
2022-10-29T11:50:43.447Z,5.10
2022-10-29T11:53:34.763Z,5.53
2022-10-29T11:56:14.199Z,5.65
2022-10-29T11:59:19.684Z,5.65
2022-10-29T12:01:55.553Z,5.85
2022-10-29T12:04:38.372Z,5.78
2022-10-29T12:07:35.083Z,6.00
2022-10-29T12:10:09.380Z,6.20
2022-10-29T12:13:08.629Z,7.28
2022-10-29T12:15:51.305Z,6.72
2022-10-29T12:18:30.330Z,6.50
2022-10-29T12:21:26.681Z,6.03
2022-10-29T12:24:30.510Z,6.32
2022-10-29T12:27:18.169Z,6.35
2022-10-29T12:30:04.398Z,6.38
2022-10-29T12:32:46.557Z,6.82
2022-10-29T12:35:35.252Z,6.38
2022-10-29T12:38:17.476Z,7.47
2022-10-29T12:40:48.958Z,6.80
2022-10-29T12:43:31.910Z,6.75
2022-10-29T12:46:21.309Z,6.80
2022-10-29T12:48:58.204Z,6.57
2022-10-29T12:51:43.958Z,7.20
2022-10-29T12:54:30.322Z,7.15
2022-10-29T12:57:13.029Z,7.03
2022-10-29T13:00:32.945Z,6.93
2022-10-29T13:03:00.537Z,8.27
2022-10-29T13:05:42.026Z,7.72
2022-10-29T13:08:19.246Z,7.10
2022-10-29T13:11:36.919Z,7.70
2022-10-29T13:14:04.080Z,7.25
2022-10-29T13:16:32.545Z,6.65
2022-10-29T13:19:29.478Z,6.85
2022-10-29T13:22:06.762Z,6.63
2022-10-29T13:24:33.878Z,7.30
2022-10-29T13:27:12.843Z,7.72
2022-10-29T13:29:51.024Z,7.85
2022-10-29T13:32:34.134Z,7.28
2022-10-29T13:36:06.267Z,6.85
2022-10-29T13:39:04.635Z,8.02
2022-10-29T13:41:40.432Z,7.95
2022-10-29T13:46:56.451Z,7.28
2022-10-29T13:49:30.552Z,7.65
2022-10-29T13:55:08.057Z,8.05
2022-10-29T13:57:54.480Z,8.25
2022-10-29T14:00:22.194Z,7.20
2022-10-29T14:03:22.672Z,8.05
2022-10-29T14:05:56.331Z,7.97
2022-10-29T14:08:49.114Z,8.38
2022-10-29T14:11:33.536Z,7.15
2022-10-29T14:14:04.460Z,8.40
2022-10-29T14:16:33.385Z,7.45
2022-10-29T14:23:20.379Z,8.20
2022-10-29T14:25:55.368Z,7.72
2022-10-29T14:28:30.362Z,8.25
2022-10-29T14:31:07.493Z,9.13
2022-10-29T14:34:25.908Z,8.40
2022-10-29T14:37:01.403Z,8.80
2022-10-29T14:39:59.713Z,8.32
2022-10-29T14:42:43.357Z,8.32
2022-10-29T14:54:19.714Z,9.80
2022-10-29T14:56:50.342Z,8.80
2022-10-29T14:59:39.138Z,9.75
2022-10-29T15:02:36.467Z,9.38
2022-10-29T15:05:28.047Z,9.90
2022-10-29T15:08:11.285Z,9.75
2022-10-29T15:11:18.746Z,10.30
2022-10-29T15:13:46.440Z,9.70
2022-10-29T15:20:40.697Z,9.65
2022-10-29T15:23:35.932Z,10.27
2022-10-29T15:26:24.100Z,9.55
2022-10-29T15:28:54.877Z,10.75
2022-10-29T15:32:06.917Z,11.57
2022-10-29T15:34:36.607Z,12.05
2022-10-29T15:37:45.218Z,10.57
2022-10-29T15:40:14.871Z,10.73
2022-10-29T15:42:51.038Z,10.88
2022-10-29T15:45:25.730Z,11.60
2022-10-29T15:52:21.803Z,11.05
2022-10-29T15:54:49.155Z,11.45
2022-10-29T15:57:17.844Z,11.85
2022-10-29T15:59:44.881Z,11.50
2022-10-29T16:02:14.352Z,10.32
2022-10-29T16:05:35.839Z,11.95
2022-10-29T16:08:03.863Z,12.57
2022-10-29T16:10:31.541Z,12.35
2022-10-29T16:13:55.122Z,13.73
2022-10-29T16:16:24.513Z,14.20
2022-10-29T16:18:58.744Z,14.80
2022-10-29T16:21:26.615Z,15.32
2022-10-29T16:23:54.142Z,14.35
2022-10-29T16:26:48.963Z,14.77
2022-10-29T16:31:43.601Z,15.25
2022-10-29T16:34:30.905Z,15.50
2022-10-29T16:36:57.984Z,18.67
2022-10-29T16:39:25.019Z,31.13
2022-10-29T16:41:54.469Z,54.65
2022-10-29T16:44:21.516Z,42.85
2022-10-29T16:46:48.617Z,39.92
2022-10-29T16:49:15.665Z,32.85
2022-10-29T16:51:42.877Z,29.90
2022-10-29T16:54:09.890Z,27.45
2022-10-29T16:56:36.936Z,21.52
2022-10-29T16:59:04.046Z,21.05
2022-10-29T17:02:40.675Z,20.52
2022-10-29T17:05:07.979Z,18.80
2022-10-29T17:07:35.068Z,17.95
2022-10-29T17:10:52.670Z,17.83
2022-10-29T17:13:20.042Z,17.85
2022-10-29T17:15:47.054Z,18.33
2022-10-29T17:26:43.283Z,18.50
2022-10-29T17:33:47.276Z,18.95
2022-10-29T17:36:15.506Z,21.33
2022-10-29T17:38:42.506Z,19.08
2022-10-29T18:17:29.150Z,19.90
2022-10-29T18:19:56.248Z,19.73
2022-10-29T18:22:23.296Z,17.83
2022-10-29T18:46:16.624Z,15.85
2022-10-29T18:48:47.068Z,15.27
2022-10-29T18:56:19.623Z,14.60
2022-10-29T18:58:47.218Z,14.02
2022-10-29T19:01:17.027Z,14.55
2022-10-29T19:03:48.366Z,15.18
2022-10-29T19:09:38.351Z,14.65
2022-10-29T19:10:36.172Z,13.63
2022-10-29T19:12:05.841Z,14.15
2022-10-29T19:14:32.881Z,16.25
2022-10-29T19:17:51.320Z,14.02
2022-10-29T19:20:19.641Z,17.52
2022-10-29T19:22:46.752Z,16.05
2022-10-29T19:42:58.132Z,14.87
2022-10-29T19:45:25.165Z,14.82
2022-10-29T20:36:13.896Z,17.42
2022-10-29T20:38:41.085Z,16.53
2022-10-29T20:41:08.309Z,18.25
2022-10-29T20:47:43.426Z,15.55
2022-10-29T20:50:10.603Z,15.57
2022-10-29T20:52:37.654Z,14.88
2022-10-29T20:55:05.270Z,14.25
2022-10-29T20:57:32.323Z,14.52
2022-10-29T21:27:10.073Z,19.20
2022-10-29T21:29:37.204Z,19.40
2022-10-29T21:32:04.435Z,19.17
2022-10-29T21:47:51.204Z,20.37
2022-10-29T21:50:18.396Z,22.30
2022-10-29T22:07:03.559Z,36.20
2022-10-29T22:09:30.741Z,42.20
2022-10-29T22:11:57.784Z,45.75
2022-10-29T22:33:09.600Z,39.45
2022-10-29T22:35:36.676Z,39.13
2022-10-29T22:38:03.699Z,39.85
2022-10-29T22:45:24.794Z,40.38
2022-10-29T22:47:51.920Z,38.10
2022-10-29T22:50:19.032Z,40.08
2022-10-29T22:53:21.736Z,39.22
2022-10-29T22:55:53.012Z,39.50
2022-10-29T22:58:20.143Z,39.78
2022-10-29T23:01:13.117Z,37.65
2022-10-29T23:22:10.345Z,38.10
2022-10-29T23:24:37.461Z,37.28
2022-10-29T23:27:04.590Z,37.28
2022-10-29T23:46:57.178Z,38.85
2022-10-29T23:49:24.231Z,37.90
2022-10-29T23:56:13.005Z,36.75
2022-10-29T23:58:40.097Z,36.67
